createdAt,value
2018-02-01T07:02:06.052Z,1.83
2018-02-01T07:04:33.634Z,1.20
2018-02-01T07:07:01.192Z,1.60
2018-02-01T07:09:28.735Z,1.50
2018-02-01T07:11:56.378Z,1.30
2018-02-01T07:14:38.357Z,1.60
2018-02-01T07:17:22.016Z,1.83
2018-02-01T07:19:54.560Z,2.37
2018-02-01T07:22:24.196Z,2.17
2018-02-01T07:24:57.561Z,2.40
2018-02-01T07:27:25.812Z,1.63
2018-02-01T07:29:57.662Z,2.27
2018-02-01T07:32:29.300Z,2.37
2018-02-01T07:35:06.973Z,2.17
2018-02-01T07:37:36.466Z,2.20
2018-02-01T07:40:06.864Z,2.40
2018-02-01T07:42:36.328Z,3.10
2018-02-01T07:45:07.681Z,3.47
2018-02-01T07:47:36.532Z,2.40
2018-02-01T07:50:05.065Z,2.83
2018-02-01T07:52:33.439Z,3.23
2018-02-01T07:55:05.145Z,2.40
2018-02-01T08:00:16.137Z,2.20
2018-02-01T08:05:42.834Z,2.40
2018-02-01T08:25:53.805Z,2.30
2018-02-01T08:33:10.580Z,1.60
2018-02-01T08:35:51.732Z,2.73
2018-02-01T08:54:42.928Z,1.73
2018-02-01T09:00:24.217Z,1.00
2018-02-01T09:03:17.787Z,1.23
2018-02-01T09:11:50.538Z,0.40
2018-02-01T09:17:28.503Z,1.07
2018-02-01T09:47:28.141Z,0.87
2018-02-01T09:49:57.226Z,0.47
2018-02-01T09:52:25.837Z,0.80
2018-02-01T09:55:09.409Z,2.53
2018-02-01T10:00:22.663Z,1.63
2018-02-01T10:03:00.986Z,1.27
2018-02-01T10:05:29.030Z,0.60
2018-02-01T10:08:06.960Z,0.90
2018-02-01T10:10:37.464Z,1.33
2018-02-01T10:18:40.404Z,1.90
2018-02-01T10:24:15.756Z,0.40
2018-02-01T10:26:51.134Z,1.30
2018-02-01T10:29:25.840Z,1.17
